sensor_id;sensor_type;location;lat;lon;timestamp;temperature;humidity
30999;DHT22;20549;50.042;8.968;2023-04-01T00:01:23;13.70;86.20
30999;DHT22;20549;50.042;8.968;2023-04-01T00:03:50;13.70;86.10
30999;DHT22;20549;50.042;8.968;2023-04-01T00:06:17;13.70;85.90
30999;DHT22;20549;50.042;8.968;2023-04-01T00:08:43;13.70;85.60
30999;DHT22;20549;50.042;8.968;2023-04-01T00:11:09;13.70;85.50
30999;DHT22;20549;50.042;8.968;2023-04-01T00:13:36;13.70;85.80
30999;DHT22;20549;50.042;8.968;2023-04-01T00:16:03;13.70;85.60
30999;DHT22;20549;50.042;8.968;2023-04-01T00:18:29;13.60;85.60
30999;DHT22;20549;50.042;8.968;2023-04-01T00:20:56;13.60;85.30
30999;DHT22;20549;50.042;8.968;2023-04-01T00:23:22;13.60;85.20
30999;DHT22;20549;50.042;8.968;2023-04-01T00:25:49;13.60;85.20
30999;DHT22;20549;50.042;8.968;2023-04-01T00:28:16;13.60;85.10
30999;DHT22;20549;50.042;8.968;2023-04-01T00:30:42;13.60;85.20
30999;DHT22;20549;50.042;8.968;2023-04-01T00:33:09;13.60;85.20
30999;DHT22;20549;50.042;8.968;2023-04-01T00:35:35;13.60;84.90
30999;DHT22;20549;50.042;8.968;2023-04-01T00:38:02;13.60;84.80
30999;DHT22;20549;50.042;8.968;2023-04-01T00:40:36;13.60;84.90
30999;DHT22;20549;50.042;8.968;2023-04-01T00:43:01;13.60;85.00
30999;DHT22;20549;50.042;8.968;2023-04-01T00:45:29;13.60;84.80
30999;DHT22;20549;50.042;8.968;2023-04-01T00:47:54;13.60;84.90
30999;DHT22;20549;50.042;8.968;2023-04-01T00:50:21;13.60;84.90
30999;DHT22;20549;50.042;8.968;2023-04-01T00:52:47;13.60;84.60
30999;DHT22;20549;50.042;8.968;2023-04-01T00:55:14;13.60;84.20
30999;DHT22;20549;50.042;8.968;2023-04-01T00:57:40;13.60;84.00
30999;DHT22;20549;50.042;8.968;2023-04-01T01:00:09;13.60;84.00
30999;DHT22;20549;50.042;8.968;2023-04-01T01:02:34;13.60;83.90
30999;DHT22;20549;50.042;8.968;2023-04-01T01:05:00;13.60;83.90
30999;DHT22;20549;50.042;8.968;2023-04-01T01:07:30;13.60;84.40
30999;DHT22;20549;50.042;8.968;2023-04-01T01:10:10;13.60;83.70
30999;DHT22;20549;50.042;8.968;2023-04-01T01:12:44;13.60;83.60
30999;DHT22;20549;50.042;8.968;2023-04-01T01:17:56;13.60;83.30
30999;DHT22;20549;50.042;8.968;2023-04-01T01:20:47;13.60;83.50
30999;DHT22;20549;50.042;8.968;2023-04-01T01:26:13;13.60;83.20
30999;DHT22;20549;50.042;8.968;2023-04-01T01:37:08;13.60;82.80
30999;DHT22;20549;50.042;8.968;2023-04-01T01:39:32;13.50;82.50
30999;DHT22;20549;50.042;8.968;2023-04-01T01:42:00;13.50;82.70
30999;DHT22;20549;50.042;8.968;2023-04-01T01:44:25;13.50;82.70
30999;DHT22;20549;50.042;8.968;2023-04-01T01:46:52;13.60;82.80
30999;DHT22;20549;50.042;8.968;2023-04-01T01:49:18;13.60;82.90
30999;DHT22;20549;50.042;8.968;2023-04-01T01:51:45;13.60;82.70
30999;DHT22;20549;50.042;8.968;2023-04-01T01:54:13;13.60;82.40
30999;DHT22;20549;50.042;8.968;2023-04-01T01:56:38;13.60;82.50
30999;DHT22;20549;50.042;8.968;2023-04-01T01:59:06;13.60;82.50
30999;DHT22;20549;50.042;8.968;2023-04-01T02:01:32;13.60;82.50
30999;DHT22;20549;50.042;8.968;2023-04-01T02:03:58;13.60;82.30
30999;DHT22;20549;50.042;8.968;2023-04-01T02:06:25;13.60;82.20
30999;DHT22;20549;50.042;8.968;2023-04-01T02:11:19;13.60;81.90
30999;DHT22;20549;50.042;8.968;2023-04-01T02:14:01;13.70;81.50
30999;DHT22;20549;50.042;8.968;2023-04-01T02:16:31;13.70;81.80
30999;DHT22;20549;50.042;8.968;2023-04-01T02:18:55;13.70;82.00
30999;DHT22;20549;50.042;8.968;2023-04-01T02:21:22;13.70;81.70
30999;DHT22;20549;50.042;8.968;2023-04-01T02:23:48;13.70;81.60
30999;DHT22;20549;50.042;8.968;2023-04-01T02:26:15;13.70;81.00
30999;DHT22;20549;50.042;8.968;2023-04-01T02:28:42;13.70;81.10
30999;DHT22;20549;50.042;8.968;2023-04-01T02:31:09;13.70;81.60
30999;DHT22;20549;50.042;8.968;2023-04-01T02:33:35;13.70;81.40
30999;DHT22;20549;50.042;8.968;2023-04-01T02:36:01;13.70;80.70
30999;DHT22;20549;50.042;8.968;2023-04-01T02:38:28;13.70;81.30
30999;DHT22;20549;50.042;8.968;2023-04-01T02:40:59;13.70;81.30
30999;DHT22;20549;50.042;8.968;2023-04-01T02:43:24;13.70;80.90
30999;DHT22;20549;50.042;8.968;2023-04-01T02:45:50;13.70;81.00
30999;DHT22;20549;50.042;8.968;2023-04-01T02:48:17;13.70;80.80
30999;DHT22;20549;50.042;8.968;2023-04-01T02:50:44;13.70;80.70
30999;DHT22;20549;50.042;8.968;2023-04-01T02:53:10;13.60;80.80
30999;DHT22;20549;50.042;8.968;2023-04-01T02:55:37;13.60;80.70
30999;DHT22;20549;50.042;8.968;2023-04-01T02:58:03;13.60;81.00
30999;DHT22;20549;50.042;8.968;2023-04-01T03:00:30;13.60;80.80
30999;DHT22;20549;50.042;8.968;2023-04-01T03:02:57;13.60;81.10
30999;DHT22;20549;50.042;8.968;2023-04-01T03:05:23;13.60;81.00
30999;DHT22;20549;50.042;8.968;2023-04-01T03:07:50;13.60;81.00
30999;DHT22;20549;50.042;8.968;2023-04-01T03:10:16;13.60;81.00
30999;DHT22;20549;50.042;8.968;2023-04-01T03:12:43;13.60;81.10
30999;DHT22;20549;50.042;8.968;2023-04-01T03:15:10;13.60;81.10
30999;DHT22;20549;50.042;8.968;2023-04-01T03:17:36;13.60;81.20
30999;DHT22;20549;50.042;8.968;2023-04-01T03:20:03;13.60;81.30
30999;DHT22;20549;50.042;8.968;2023-04-01T03:22:29;13.60;81.20
30999;DHT22;20549;50.042;8.968;2023-04-01T03:24:56;13.60;81.20
30999;DHT22;20549;50.042;8.968;2023-04-01T03:27:22;13.60;81.30
30999;DHT22;20549;50.042;8.968;2023-04-01T03:29:49;13.60;81.10
30999;DHT22;20549;50.042;8.968;2023-04-01T03:32:16;13.60;81.30
30999;DHT22;20549;50.042;8.968;2023-04-01T03:34:42;13.60;81.30
30999;DHT22;20549;50.042;8.968;2023-04-01T03:37:09;13.60;81.10
30999;DHT22;20549;50.042;8.968;2023-04-01T03:39:35;13.50;81.20
30999;DHT22;20549;50.042;8.968;2023-04-01T03:42:02;13.60;81.00
30999;DHT22;20549;50.042;8.968;2023-04-01T03:44:32;13.60;81.10
30999;DHT22;20549;50.042;8.968;2023-04-01T03:46:58;13.60;81.30
30999;DHT22;20549;50.042;8.968;2023-04-01T03:49:25;13.60;81.10
30999;DHT22;20549;50.042;8.968;2023-04-01T03:51:51;13.60;81.20
30999;DHT22;20549;50.042;8.968;2023-04-01T03:54:18;13.60;81.30
30999;DHT22;20549;50.042;8.968;2023-04-01T03:56:44;13.60;81.10
30999;DHT22;20549;50.042;8.968;2023-04-01T03:59:11;13.60;81.00
30999;DHT22;20549;50.042;8.968;2023-04-01T04:01:38;13.60;81.10
30999;DHT22;20549;50.042;8.968;2023-04-01T04:04:04;13.60;81.10
30999;DHT22;20549;50.042;8.968;2023-04-01T04:06:31;13.60;81.30
30999;DHT22;20549;50.042;8.968;2023-04-01T04:08:57;13.60;81.70
30999;DHT22;20549;50.042;8.968;2023-04-01T04:11:24;13.60;81.90
30999;DHT22;20549;50.042;8.968;2023-04-01T04:13:51;13.50;81.90
30999;DHT22;20549;50.042;8.968;2023-04-01T04:16:17;13.50;82.00
30999;DHT22;20549;50.042;8.968;2023-04-01T04:18:44;13.50;82.00
30999;DHT22;20549;50.042;8.968;2023-04-01T04:21:14;13.50;81.90
30999;DHT22;20549;50.042;8.968;2023-04-01T04:23:37;13.50;81.90
30999;DHT22;20549;50.042;8.968;2023-04-01T04:26:04;13.40;81.90
30999;DHT22;20549;50.042;8.968;2023-04-01T04:28:30;13.40;82.00
30999;DHT22;20549;50.042;8.968;2023-04-01T04:30:57;13.40;82.10
30999;DHT22;20549;50.042;8.968;2023-04-01T04:33:23;13.40;82.10
30999;DHT22;20549;50.042;8.968;2023-04-01T04:35:50;13.40;82.30
30999;DHT22;20549;50.042;8.968;2023-04-01T04:38:16;13.40;82.30
30999;DHT22;20549;50.042;8.968;2023-04-01T04:40:43;13.40;82.30
30999;DHT22;20549;50.042;8.968;2023-04-01T04:43:10;13.40;82.30
30999;DHT22;20549;50.042;8.968;2023-04-01T04:45:36;13.40;82.30
30999;DHT22;20549;50.042;8.968;2023-04-01T04:48:03;13.40;82.00
30999;DHT22;20549;50.042;8.968;2023-04-01T04:50:29;13.40;82.00
30999;DHT22;20549;50.042;8.968;2023-04-01T04:52:56;13.40;82.00
30999;DHT22;20549;50.042;8.968;2023-04-01T04:55:22;13.40;82.00
30999;DHT22;20549;50.042;8.968;2023-04-01T04:57:49;13.40;82.00
30999;DHT22;20549;50.042;8.968;2023-04-01T05:00:16;13.40;82.10
30999;DHT22;20549;50.042;8.968;2023-04-01T05:02:42;13.40;82.00
30999;DHT22;20549;50.042;8.968;2023-04-01T05:05:09;13.40;82.00
30999;DHT22;20549;50.042;8.968;2023-04-01T05:07:35;13.40;81.90
30999;DHT22;20549;50.042;8.968;2023-04-01T05:10:02;13.40;81.80
30999;DHT22;20549;50.042;8.968;2023-04-01T05:12:29;13.40;81.60
30999;DHT22;20549;50.042;8.968;2023-04-01T05:14:55;13.50;81.70
30999;DHT22;20549;50.042;8.968;2023-04-01T05:17:22;13.50;81.70
30999;DHT22;20549;50.042;8.968;2023-04-01T05:19:48;13.50;82.00
30999;DHT22;20549;50.042;8.968;2023-04-01T05:22:15;13.50;82.20
30999;DHT22;20549;50.042;8.968;2023-04-01T05:24:41;13.50;82.30
30999;DHT22;20549;50.042;8.968;2023-04-01T05:27:08;13.50;82.40
30999;DHT22;20549;50.042;8.968;2023-04-01T05:29:35;13.50;82.50
30999;DHT22;20549;50.042;8.968;2023-04-01T05:32:01;13.50;82.50
30999;DHT22;20549;50.042;8.968;2023-04-01T05:34:28;13.50;82.80
30999;DHT22;20549;50.042;8.968;2023-04-01T05:36:54;13.40;83.00
30999;DHT22;20549;50.042;8.968;2023-04-01T05:39:21;13.40;83.30
30999;DHT22;20549;50.042;8.968;2023-04-01T05:41:48;13.40;83.40
30999;DHT22;20549;50.042;8.968;2023-04-01T05:44:14;13.40;83.70
30999;DHT22;20549;50.042;8.968;2023-04-01T05:46:41;13.40;84.30
30999;DHT22;20549;50.042;8.968;2023-04-01T05:49:07;13.40;84.30
30999;DHT22;20549;50.042;8.968;2023-04-01T05:51:34;13.40;85.20
30999;DHT22;20549;50.042;8.968;2023-04-01T05:54:00;13.30;85.00
30999;DHT22;20549;50.042;8.968;2023-04-01T05:56:27;13.40;86.20
30999;DHT22;20549;50.042;8.968;2023-04-01T05:58:54;13.30;85.50
30999;DHT22;20549;50.042;8.968;2023-04-01T06:01:20;13.30;85.90
30999;DHT22;20549;50.042;8.968;2023-04-01T06:03:47;13.30;86.00
30999;DHT22;20549;50.042;8.968;2023-04-01T06:06:14;13.30;86.20
30999;DHT22;20549;50.042;8.968;2023-04-01T06:08:40;13.30;86.50
30999;DHT22;20549;50.042;8.968;2023-04-01T06:11:35;13.30;86.40
30999;DHT22;20549;50.042;8.968;2023-04-01T06:13:46;13.30;86.50
30999;DHT22;20549;50.042;8.968;2023-04-01T06:33:20;13.30;87.60
30999;DHT22;20549;50.042;8.968;2023-04-01T06:35:55;13.30;87.90
30999;DHT22;20549;50.042;8.968;2023-04-01T06:38:55;13.30;87.90
30999;DHT22;20549;50.042;8.968;2023-04-01T06:49:33;13.30;88.50
30999;DHT22;20549;50.042;8.968;2023-04-01T06:54:33;13.40;88.70
30999;DHT22;20549;50.042;8.968;2023-04-01T06:57:00;13.40;88.90
30999;DHT22;20549;50.042;8.968;2023-04-01T06:59:25;13.40;88.90
30999;DHT22;20549;50.042;8.968;2023-04-01T07:01:57;13.40;89.30
30999;DHT22;20549;50.042;8.968;2023-04-01T07:04:31;13.40;89.20
30999;DHT22;20549;50.042;8.968;2023-04-01T07:07:01;13.40;89.30
30999;DHT22;20549;50.042;8.968;2023-04-01T07:09:49;13.40;89.50
30999;DHT22;20549;50.042;8.968;2023-04-01T07:11:53;13.40;89.70
30999;DHT22;20549;50.042;8.968;2023-04-01T07:14:29;13.50;90.00
30999;DHT22;20549;50.042;8.968;2023-04-01T07:16:59;13.50;89.90
30999;DHT22;20549;50.042;8.968;2023-04-01T07:19:31;13.50;89.80
30999;DHT22;20549;50.042;8.968;2023-04-01T07:25:17;13.60;90.00
30999;DHT22;20549;50.042;8.968;2023-04-01T07:27:43;13.60;89.60
30999;DHT22;20549;50.042;8.968;2023-04-01T07:30:16;13.70;90.00
30999;DHT22;20549;50.042;8.968;2023-04-01T07:32:51;13.70;89.80
30999;DHT22;20549;50.042;8.968;2023-04-01T07:35:35;13.70;89.60
30999;DHT22;20549;50.042;8.968;2023-04-01T07:40:58;13.80;89.60
30999;DHT22;20549;50.042;8.968;2023-04-01T07:43:40;13.80;89.60
30999;DHT22;20549;50.042;8.968;2023-04-01T07:46:07;13.80;89.60
30999;DHT22;20549;50.042;8.968;2023-04-01T07:51:20;13.90;90.00
30999;DHT22;20549;50.042;8.968;2023-04-01T07:53:51;13.90;90.00
30999;DHT22;20549;50.042;8.968;2023-04-01T08:01:26;14.00;90.00
30999;DHT22;20549;50.042;8.968;2023-04-01T08:06:24;14.10;90.20
30999;DHT22;20549;50.042;8.968;2023-04-01T08:09:05;14.10;90.40
30999;DHT22;20549;50.042;8.968;2023-04-01T08:17:08;14.30;90.20
30999;DHT22;20549;50.042;8.968;2023-04-01T08:22:16;14.30;90.20
30999;DHT22;20549;50.042;8.968;2023-04-01T08:24:43;14.30;90.20
30999;DHT22;20549;50.042;8.968;2023-04-01T08:27:21;14.40;90.50
30999;DHT22;20549;50.042;8.968;2023-04-01T08:29:40;14.40;90.50
30999;DHT22;20549;50.042;8.968;2023-04-01T08:32:07;14.50;90.50
30999;DHT22;20549;50.042;8.968;2023-04-01T08:34:37;14.50;90.50
30999;DHT22;20549;50.042;8.968;2023-04-01T08:37:02;14.50;90.40
30999;DHT22;20549;50.042;8.968;2023-04-01T08:39:45;14.60;90.40
30999;DHT22;20549;50.042;8.968;2023-04-01T08:42:19;14.60;90.30
30999;DHT22;20549;50.042;8.968;2023-04-01T08:47:42;14.60;90.20
30999;DHT22;20549;50.042;8.968;2023-04-01T08:58:31;14.60;90.10
30999;DHT22;20549;50.042;8.968;2023-04-01T09:00:53;14.60;90.30
30999;DHT22;20549;50.042;8.968;2023-04-01T09:03:34;14.60;90.40
30999;DHT22;20549;50.042;8.968;2023-04-01T09:11:28;14.70;91.10
30999;DHT22;20549;50.042;8.968;2023-04-01T09:19:20;14.70;91.40
30999;DHT22;20549;50.042;8.968;2023-04-01T09:29:54;14.60;92.00
30999;DHT22;20549;50.042;8.968;2023-04-01T09:32:42;14.60;92.20
30999;DHT22;20549;50.042;8.968;2023-04-01T09:37:57;14.60;92.50
30999;DHT22;20549;50.042;8.968;2023-04-01T09:45:34;14.60;93.00
30999;DHT22;20549;50.042;8.968;2023-04-01T09:48:14;14.60;93.00
30999;DHT22;20549;50.042;8.968;2023-04-01T10:15:29;14.80;94.10
30999;DHT22;20549;50.042;8.968;2023-04-01T10:18:01;14.90;94.40
30999;DHT22;20549;50.042;8.968;2023-04-01T10:36:52;15.30;94.20
30999;DHT22;20549;50.042;8.968;2023-04-01T10:42:15;15.30;94.20
30999;DHT22;20549;50.042;8.968;2023-04-01T10:53:08;15.30;93.90
30999;DHT22;20549;50.042;8.968;2023-04-01T10:55:48;15.20;93.80
30999;DHT22;20549;50.042;8.968;2023-04-01T10:58:35;15.20;93.90
30999;DHT22;20549;50.042;8.968;2023-04-01T11:10:08;15.10;95.20
30999;DHT22;20549;50.042;8.968;2023-04-01T11:15:17;15.20;95.70
30999;DHT22;20549;50.042;8.968;2023-04-01T11:23:21;15.30;95.90
30999;DHT22;20549;50.042;8.968;2023-04-01T11:26:02;15.40;95.80
30999;DHT22;20549;50.042;8.968;2023-04-01T11:43:14;15.40;95.80
30999;DHT22;20549;50.042;8.968;2023-04-01T11:48:13;15.50;96.30
30999;DHT22;20549;50.042;8.968;2023-04-01T11:50:51;15.60;96.50
30999;DHT22;20549;50.042;8.968;2023-04-01T11:53:23;15.70;96.70
30999;DHT22;20549;50.042;8.968;2023-04-01T12:01:30;15.90;96.20
30999;DHT22;20549;50.042;8.968;2023-04-01T12:06:45;16.10;95.80
30999;DHT22;20549;50.042;8.968;2023-04-01T12:09:16;16.20;95.40
30999;DHT22;20549;50.042;8.968;2023-04-01T12:11:48;16.20;94.90
30999;DHT22;20549;50.042;8.968;2023-04-01T12:14:13;16.30;94.50
30999;DHT22;20549;50.042;8.968;2023-04-01T12:19:43;16.30;94.10
30999;DHT22;20549;50.042;8.968;2023-04-01T12:22:24;16.30;94.10
30999;DHT22;20549;50.042;8.968;2023-04-01T12:24:53;16.30;94.10
30999;DHT22;20549;50.042;8.968;2023-04-01T12:32:46;16.30;93.60
30999;DHT22;20549;50.042;8.968;2023-04-01T12:41:08;16.30;94.30
30999;DHT22;20549;50.042;8.968;2023-04-01T12:43:38;16.30;94.20
30999;DHT22;20549;50.042;8.968;2023-04-01T12:46:32;16.30;94.20
30999;DHT22;20549;50.042;8.968;2023-04-01T12:49:17;16.30;94.20
30999;DHT22;20549;50.042;8.968;2023-04-01T13:00:42;16.40;93.60
30999;DHT22;20549;50.042;8.968;2023-04-01T13:03:19;16.30;93.50
30999;DHT22;20549;50.042;8.968;2023-04-01T13:06:10;16.30;93.30
30999;DHT22;20549;50.042;8.968;2023-04-01T13:11:42;16.30;93.20
30999;DHT22;20549;50.042;8.968;2023-04-01T13:14:39;16.30;93.40
30999;DHT22;20549;50.042;8.968;2023-04-01T13:17:10;16.20;93.60
30999;DHT22;20549;50.042;8.968;2023-04-01T13:19:48;16.10;93.70
30999;DHT22;20549;50.042;8.968;2023-04-01T13:22:29;16.10;93.70
30999;DHT22;20549;50.042;8.968;2023-04-01T13:27:40;16.00;93.50
30999;DHT22;20549;50.042;8.968;2023-04-01T13:30:30;15.90;93.40
30999;DHT22;20549;50.042;8.968;2023-04-01T13:33:14;15.80;93.60
30999;DHT22;20549;50.042;8.968;2023-04-01T13:41:26;15.50;94.00
30999;DHT22;20549;50.042;8.968;2023-04-01T13:43:56;15.40;94.40
30999;DHT22;20549;50.042;8.968;2023-04-01T13:46:34;15.30;94.60
30999;DHT22;20549;50.042;8.968;2023-04-01T13:49:26;15.20;95.40
30999;DHT22;20549;50.042;8.968;2023-04-01T13:52:07;15.20;96.20
30999;DHT22;20549;50.042;8.968;2023-04-01T13:54:58;15.20;97.20
30999;DHT22;20549;50.042;8.968;2023-04-01T13:57:33;15.30;97.80
30999;DHT22;20549;50.042;8.968;2023-04-01T14:00:03;15.30;98.40
30999;DHT22;20549;50.042;8.968;2023-04-01T14:02:48;15.50;98.60
30999;DHT22;20549;50.042;8.968;2023-04-01T14:07:58;15.80;98.30
30999;DHT22;20549;50.042;8.968;2023-04-01T14:10:47;15.80;98.00
30999;DHT22;20549;50.042;8.968;2023-04-01T14:13:33;15.90;97.80
30999;DHT22;20549;50.042;8.968;2023-04-01T14:16:26;16.00;97.90
30999;DHT22;20549;50.042;8.968;2023-04-01T14:21:56;16.20;97.00
30999;DHT22;20549;50.042;8.968;2023-04-01T14:35:41;16.20;96.10
30999;DHT22;20549;50.042;8.968;2023-04-01T14:43:20;16.10;95.30
30999;DHT22;20549;50.042;8.968;2023-04-01T14:45:47;16.10;94.90
30999;DHT22;20549;50.042;8.968;2023-04-01T14:51:02;15.90;94.60
30999;DHT22;20549;50.042;8.968;2023-04-01T14:55:51;15.70;95.00
30999;DHT22;20549;50.042;8.968;2023-04-01T14:58:17;15.60;95.30
30999;DHT22;20549;50.042;8.968;2023-04-01T15:00:55;15.50;95.50
30999;DHT22;20549;50.042;8.968;2023-04-01T15:03:26;15.40;95.60
30999;DHT22;20549;50.042;8.968;2023-04-01T15:11:33;15.10;96.20
30999;DHT22;20549;50.042;8.968;2023-04-01T15:13:58;15.10;96.60
30999;DHT22;20549;50.042;8.968;2023-04-01T15:19:41;14.90;96.90
30999;DHT22;20549;50.042;8.968;2023-04-01T15:25:11;14.80;97.20
30999;DHT22;20549;50.042;8.968;2023-04-01T15:27:34;14.70;97.50
30999;DHT22;20549;50.042;8.968;2023-04-01T15:38:11;14.50;98.40
30999;DHT22;20549;50.042;8.968;2023-04-01T15:41:00;14.50;98.50
30999;DHT22;20549;50.042;8.968;2023-04-01T15:56:50;14.70;99.90
30999;DHT22;20549;50.042;8.968;2023-04-01T16:01:38;14.80;99.80
30999;DHT22;20549;50.042;8.968;2023-04-01T16:07:36;14.80;99.70
30999;DHT22;20549;50.042;8.968;2023-04-01T16:13:12;14.80;99.40
30999;DHT22;20549;50.042;8.968;2023-04-01T16:15:56;14.80;99.40
30999;DHT22;20549;50.042;8.968;2023-04-01T16:21:04;14.80;99.50
30999;DHT22;20549;50.042;8.968;2023-04-01T16:23:33;14.80;99.50
30999;DHT22;20549;50.042;8.968;2023-04-01T16:26:04;14.80;99.50
30999;DHT22;20549;50.042;8.968;2023-04-01T16:28:32;14.80;99.50
30999;DHT22;20549;50.042;8.968;2023-04-01T16:30:58;14.80;99.50
30999;DHT22;20549;50.042;8.968;2023-04-01T16:39:08;14.80;99.40
30999;DHT22;20549;50.042;8.968;2023-04-01T16:41:32;14.80;99.30
30999;DHT22;20549;50.042;8.968;2023-04-01T16:44:16;14.70;99.30
30999;DHT22;20549;50.042;8.968;2023-04-01T16:46:40;14.70;99.20
30999;DHT22;20549;50.042;8.968;2023-04-01T16:56:50;14.50;99.40
30999;DHT22;20549;50.042;8.968;2023-04-01T16:59:38;14.40;99.60
30999;DHT22;20549;50.042;8.968;2023-04-01T17:04:47;14.40;99.80
30999;DHT22;20549;50.042;8.968;2023-04-01T17:10:37;14.30;99.90
30999;DHT22;20549;50.042;8.968;2023-04-01T17:18:27;14.20;99.90
30999;DHT22;20549;50.042;8.968;2023-04-01T17:20:56;14.20;99.90
30999;DHT22;20549;50.042;8.968;2023-04-01T17:23:35;14.10;99.90
30999;DHT22;20549;50.042;8.968;2023-04-01T17:29:05;14.10;99.90
30999;DHT22;20549;50.042;8.968;2023-04-01T17:31:46;14.10;99.90
30999;DHT22;20549;50.042;8.968;2023-04-01T17:39:33;14.00;99.90
30999;DHT22;20549;50.042;8.968;2023-04-01T17:42:09;14.00;99.90
30999;DHT22;20549;50.042;8.968;2023-04-01T17:45:28;14.00;99.90
30999;DHT22;20549;50.042;8.968;2023-04-01T17:58:58;13.80;99.90
30999;DHT22;20549;50.042;8.968;2023-04-01T18:04:40;13.70;99.90
30999;DHT22;20549;50.042;8.968;2023-04-01T18:14:11;13.60;99.90
30999;DHT22;20549;50.042;8.968;2023-04-01T18:16:56;13.60;99.90
30999;DHT22;20549;50.042;8.968;2023-04-01T18:24:44;13.60;99.90
30999;DHT22;20549;50.042;8.968;2023-04-01T18:27:24;13.60;99.90
30999;DHT22;20549;50.042;8.968;2023-04-01T18:29:54;13.50;99.90
30999;DHT22;20549;50.042;8.968;2023-04-01T18:33:24;13.50;99.90
30999;DHT22;20549;50.042;8.968;2023-04-01T18:35:19;13.50;99.90
30999;DHT22;20549;50.042;8.968;2023-04-01T18:37:47;13.50;99.90
30999;DHT22;20549;50.042;8.968;2023-04-01T18:40:15;13.40;99.90
30999;DHT22;20549;50.042;8.968;2023-04-01T18:42:43;13.40;99.90
30999;DHT22;20549;50.042;8.968;2023-04-01T18:45:10;13.40;99.90
30999;DHT22;20549;50.042;8.968;2023-04-01T18:47:40;13.40;99.90
30999;DHT22;20549;50.042;8.968;2023-04-01T18:50:24;13.40;99.90
30999;DHT22;20549;50.042;8.968;2023-04-01T18:52:51;13.40;99.90
30999;DHT22;20549;50.042;8.968;2023-04-01T18:57:52;13.40;99.90
30999;DHT22;20549;50.042;8.968;2023-04-01T19:03:03;13.40;99.90
30999;DHT22;20549;50.042;8.968;2023-04-01T19:05:32;13.40;99.90
30999;DHT22;20549;50.042;8.968;2023-04-01T19:08:27;13.40;99.90
30999;DHT22;20549;50.042;8.968;2023-04-01T19:16:03;13.30;99.90
30999;DHT22;20549;50.042;8.968;2023-04-01T19:19:00;13.30;99.90
30999;DHT22;20549;50.042;8.968;2023-04-01T19:34:54;13.20;99.90
30999;DHT22;20549;50.042;8.968;2023-04-01T19:37:26;13.10;99.90
30999;DHT22;20549;50.042;8.968;2023-04-01T19:40:08;13.10;99.90
30999;DHT22;20549;50.042;8.968;2023-04-01T19:42:40;13.10;99.90
30999;DHT22;20549;50.042;8.968;2023-04-01T19:53:31;13.00;99.90
30999;DHT22;20549;50.042;8.968;2023-04-01T19:56:00;13.00;99.90
30999;DHT22;20549;50.042;8.968;2023-04-01T20:01:13;13.00;99.90
30999;DHT22;20549;50.042;8.968;2023-04-01T20:03:45;13.00;99.90
30999;DHT22;20549;50.042;8.968;2023-04-01T20:08:54;13.00;99.90
30999;DHT22;20549;50.042;8.968;2023-04-01T20:11:42;13.00;99.90
30999;DHT22;20549;50.042;8.968;2023-04-01T20:14:15;13.00;99.90
30999;DHT22;20549;50.042;8.968;2023-04-01T20:16:47;12.90;99.90
30999;DHT22;20549;50.042;8.968;2023-04-01T20:19:03;12.90;99.90
30999;DHT22;20549;50.042;8.968;2023-04-01T20:26:35;12.80;99.90
30999;DHT22;20549;50.042;8.968;2023-04-01T20:37:44;12.80;99.90
30999;DHT22;20549;50.042;8.968;2023-04-01T20:40:24;12.70;99.90
30999;DHT22;20549;50.042;8.968;2023-04-01T20:45:15;12.70;99.90
30999;DHT22;20549;50.042;8.968;2023-04-01T20:50:41;12.70;99.90
30999;DHT22;20549;50.042;8.968;2023-04-01T20:53:28;12.70;99.90
30999;DHT22;20549;50.042;8.968;2023-04-01T20:56:09;12.70;99.90
30999;DHT22;20549;50.042;8.968;2023-04-01T21:07:19;12.70;99.90
30999;DHT22;20549;50.042;8.968;2023-04-01T21:09:49;12.70;99.90
30999;DHT22;20549;50.042;8.968;2023-04-01T21:15:02;12.70;99.90
30999;DHT22;20549;50.042;8.968;2023-04-01T21:17:42;12.70;99.90
30999;DHT22;20549;50.042;8.968;2023-04-01T21:20:25;12.70;99.90
30999;DHT22;20549;50.042;8.968;2023-04-01T21:25:35;12.80;99.90
30999;DHT22;20549;50.042;8.968;2023-04-01T21:28:28;12.80;99.90
30999;DHT22;20549;50.042;8.968;2023-04-01T21:31:12;12.80;99.90
30999;DHT22;20549;50.042;8.968;2023-04-01T21:36:15;12.80;99.90
30999;DHT22;20549;50.042;8.968;2023-04-01T21:44:12;12.80;99.90
30999;DHT22;20549;50.042;8.968;2023-04-01T21:55:05;12.90;99.90
30999;DHT22;20549;50.042;8.968;2023-04-01T22:00:23;12.90;99.90
30999;DHT22;20549;50.042;8.968;2023-04-01T22:03:20;12.90;99.90
30999;DHT22;20549;50.042;8.968;2023-04-01T22:06:17;12.90;99.90
30999;DHT22;20549;50.042;8.968;2023-04-01T22:08:59;12.90;99.90
30999;DHT22;20549;50.042;8.968;2023-04-01T22:11:41;12.90;99.90
30999;DHT22;20549;50.042;8.968;2023-04-01T22:16:59;12.90;99.90
30999;DHT22;20549;50.042;8.968;2023-04-01T22:19:42;13.00;99.90
30999;DHT22;20549;50.042;8.968;2023-04-01T22:27:26;13.00;99.90
30999;DHT22;20549;50.042;8.968;2023-04-01T22:32:47;13.10;99.90
30999;DHT22;20549;50.042;8.968;2023-04-01T22:35:24;13.10;99.90
30999;DHT22;20549;50.042;8.968;2023-04-01T22:45:21;13.10;99.90
30999;DHT22;20549;50.042;8.968;2023-04-01T22:48:08;13.10;99.90
30999;DHT22;20549;50.042;8.968;2023-04-01T22:53:08;13.10;99.90
30999;DHT22;20549;50.042;8.968;2023-04-01T22:55:34;13.10;99.90
30999;DHT22;20549;50.042;8.968;2023-04-01T22:58:10;13.10;99.90
30999;DHT22;20549;50.042;8.968;2023-04-01T23:00:39;13.10;99.90
30999;DHT22;20549;50.042;8.968;2023-04-01T23:03:19;13.10;99.90
30999;DHT22;20549;50.042;8.968;2023-04-01T23:05:52;13.10;99.90
30999;DHT22;20549;50.042;8.968;2023-04-01T23:13:39;13.10;99.90
30999;DHT22;20549;50.042;8.968;2023-04-01T23:16:04;13.10;99.90
30999;DHT22;20549;50.042;8.968;2023-04-01T23:18:51;13.10;99.90
30999;DHT22;20549;50.042;8.968;2023-04-01T23:21:21;13.10;99.90
30999;DHT22;20549;50.042;8.968;2023-04-01T23:24:06;13.10;99.90
30999;DHT22;20549;50.042;8.968;2023-04-01T23:26:36;13.10;99.90
30999;DHT22;20549;50.042;8.968;2023-04-01T23:29:02;13.10;99.90
30999;DHT22;20549;50.042;8.968;2023-04-01T23:34:15;13.10;99.90
30999;DHT22;20549;50.042;8.968;2023-04-01T23:36:31;13.10;99.90
30999;DHT22;20549;50.042;8.968;2023-04-01T23:39:03;13.10;99.90
30999;DHT22;20549;50.042;8.968;2023-04-01T23:41:27;13.10;99.90
30999;DHT22;20549;50.042;8.968;2023-04-01T23:44:12;13.10;99.90
30999;DHT22;20549;50.042;8.968;2023-04-01T23:46:16;13.10;99.90
30999;DHT22;20549;50.042;8.968;2023-04-01T23:48:43;13.10;99.90
30999;DHT22;20549;50.042;8.968;2023-04-01T23:53:45;13.00;99.90
30999;DHT22;20549;50.042;8.968;2023-04-01T23:56:11;13.00;99.90
30999;DHT22;20549;50.042;8.968;2023-04-01T23:58:40;13.00;99.90
